sensor_id;sensor_type;location;lat;lon;timestamp;P1;durP1;ratioP1;P2;durP2;ratioP2
7903;SDS011;3997;48.416;8.512;2022-11-25T00:01:20;4.22;;;3.00;;
7903;SDS011;3997;48.416;8.512;2022-11-25T00:03:47;4.18;;;2.88;;
7903;SDS011;3997;48.416;8.512;2022-11-25T00:06:14;3.72;;;2.83;;
7903;SDS011;3997;48.416;8.512;2022-11-25T00:08:42;4.35;;;2.88;;
7903;SDS011;3997;48.416;8.512;2022-11-25T00:11:09;3.67;;;3.10;;
7903;SDS011;3997;48.416;8.512;2022-11-25T00:13:36;4.57;;;3.00;;
7903;SDS011;3997;48.416;8.512;2022-11-25T00:16:03;5.43;;;3.15;;
7903;SDS011;3997;48.416;8.512;2022-11-25T00:18:31;5.07;;;3.15;;
7903;SDS011;3997;48.416;8.512;2022-11-25T00:20:58;4.20;;;3.08;;
7903;SDS011;3997;48.416;8.512;2022-11-25T00:23:24;2.38;;;2.00;;
7903;SDS011;3997;48.416;8.512;2022-11-25T00:25:51;1.92;;;1.70;;
7903;SDS011;3997;48.416;8.512;2022-11-25T00:28:17;1.85;;;1.70;;
7903;SDS011;3997;48.416;8.512;2022-11-25T00:30:43;3.15;;;1.98;;
7903;SDS011;3997;48.416;8.512;2022-11-25T00:33:10;1.73;;;1.60;;
7903;SDS011;3997;48.416;8.512;2022-11-25T00:35:38;2.95;;;2.00;;
7903;SDS011;3997;48.416;8.512;2022-11-25T00:38:04;3.15;;;2.25;;
7903;SDS011;3997;48.416;8.512;2022-11-25T00:40:30;2.42;;;2.20;;
7903;SDS011;3997;48.416;8.512;2022-11-25T00:42:57;3.88;;;2.38;;
7903;SDS011;3997;48.416;8.512;2022-11-25T00:45:41;4.78;;;3.00;;
7903;SDS011;3997;48.416;8.512;2022-11-25T00:48:07;3.83;;;2.70;;
7903;SDS011;3997;48.416;8.512;2022-11-25T00:50:34;3.47;;;2.75;;
7903;SDS011;3997;48.416;8.512;2022-11-25T00:53:02;3.47;;;2.47;;
7903;SDS011;3997;48.416;8.512;2022-11-25T00:55:28;2.65;;;2.00;;
7903;SDS011;3997;48.416;8.512;2022-11-25T00:58:14;1.75;;;1.60;;
7903;SDS011;3997;48.416;8.512;2022-11-25T01:00:41;2.25;;;1.30;;
7903;SDS011;3997;48.416;8.512;2022-11-25T01:03:07;4.53;;;1.63;;
7903;SDS011;3997;48.416;8.512;2022-11-25T01:05:35;2.15;;;1.83;;
7903;SDS011;3997;48.416;8.512;2022-11-25T01:08:03;2.50;;;1.48;;
7903;SDS011;3997;48.416;8.512;2022-11-25T01:10:30;1.13;;;1.13;;
7903;SDS011;3997;48.416;8.512;2022-11-25T01:12:56;1.40;;;1.30;;
7903;SDS011;3997;48.416;8.512;2022-11-25T01:15:23;1.42;;;1.33;;
7903;SDS011;3997;48.416;8.512;2022-11-25T01:17:49;1.40;;;1.30;;
7903;SDS011;3997;48.416;8.512;2022-11-25T01:20:15;3.15;;;1.40;;
7903;SDS011;3997;48.416;8.512;2022-11-25T01:22:42;2.88;;;2.08;;
7903;SDS011;3997;48.416;8.512;2022-11-25T01:25:10;4.97;;;2.00;;
7903;SDS011;3997;48.416;8.512;2022-11-25T01:27:36;3.90;;;2.22;;
7903;SDS011;3997;48.416;8.512;2022-11-25T01:30:07;2.47;;;2.00;;
7903;SDS011;3997;48.416;8.512;2022-11-25T01:32:34;4.85;;;2.55;;
7903;SDS011;3997;48.416;8.512;2022-11-25T01:35:00;4.00;;;2.75;;
7903;SDS011;3997;48.416;8.512;2022-11-25T01:37:26;3.75;;;2.97;;
7903;SDS011;3997;48.416;8.512;2022-11-25T01:39:53;4.70;;;3.75;;
7903;SDS011;3997;48.416;8.512;2022-11-25T01:42:21;6.50;;;3.53;;
7903;SDS011;3997;48.416;8.512;2022-11-25T01:47:29;4.85;;;3.08;;
7903;SDS011;3997;48.416;8.512;2022-11-25T01:49:56;3.10;;;2.50;;
7903;SDS011;3997;48.416;8.512;2022-11-25T01:52:26;4.10;;;2.45;;
7903;SDS011;3997;48.416;8.512;2022-11-25T01:54:55;5.47;;;3.47;;
7903;SDS011;3997;48.416;8.512;2022-11-25T01:57:25;6.10;;;3.17;;
7903;SDS011;3997;48.416;8.512;2022-11-25T01:59:54;3.17;;;2.88;;
7903;SDS011;3997;48.416;8.512;2022-11-25T02:02:21;4.30;;;3.05;;
7903;SDS011;3997;48.416;8.512;2022-11-25T02:04:48;4.50;;;3.13;;
7903;SDS011;3997;48.416;8.512;2022-11-25T02:07:17;4.28;;;3.33;;
7903;SDS011;3997;48.416;8.512;2022-11-25T02:09:44;3.63;;;3.03;;
7903;SDS011;3997;48.416;8.512;2022-11-25T02:12:11;7.15;;;3.15;;
7903;SDS011;3997;48.416;8.512;2022-11-25T02:14:41;3.53;;;2.40;;
7903;SDS011;3997;48.416;8.512;2022-11-25T02:17:07;2.22;;;2.05;;
7903;SDS011;3997;48.416;8.512;2022-11-25T02:19:39;4.50;;;2.47;;
7903;SDS011;3997;48.416;8.512;2022-11-25T02:22:09;3.30;;;2.15;;
7903;SDS011;3997;48.416;8.512;2022-11-25T02:24:38;3.58;;;2.20;;
7903;SDS011;3997;48.416;8.512;2022-11-25T02:27:08;3.25;;;2.40;;
7903;SDS011;3997;48.416;8.512;2022-11-25T02:29:34;5.53;;;2.58;;
7903;SDS011;3997;48.416;8.512;2022-11-25T02:32:01;4.93;;;1.98;;
7903;SDS011;3997;48.416;8.512;2022-11-25T02:34:27;4.30;;;2.75;;
7903;SDS011;3997;48.416;8.512;2022-11-25T02:36:54;4.05;;;2.53;;
7903;SDS011;3997;48.416;8.512;2022-11-25T02:39:20;3.33;;;2.15;;
7903;SDS011;3997;48.416;8.512;2022-11-25T02:41:48;6.63;;;3.38;;
7903;SDS011;3997;48.416;8.512;2022-11-25T02:44:17;6.40;;;2.58;;
7903;SDS011;3997;48.416;8.512;2022-11-25T02:46:44;6.18;;;2.40;;
7903;SDS011;3997;48.416;8.512;2022-11-25T02:49:10;4.97;;;2.38;;
7903;SDS011;3997;48.416;8.512;2022-11-25T02:51:37;3.15;;;2.20;;
7903;SDS011;3997;48.416;8.512;2022-11-25T02:54:04;5.72;;;2.55;;
7903;SDS011;3997;48.416;8.512;2022-11-25T02:56:32;7.38;;;2.50;;
7903;SDS011;3997;48.416;8.512;2022-11-25T02:58:59;3.45;;;2.22;;
7903;SDS011;3997;48.416;8.512;2022-11-25T03:01:26;2.08;;;1.88;;
7903;SDS011;3997;48.416;8.512;2022-11-25T03:03:53;3.08;;;2.17;;
7903;SDS011;3997;48.416;8.512;2022-11-25T03:06:20;2.65;;;1.88;;
7903;SDS011;3997;48.416;8.512;2022-11-25T03:08:46;2.70;;;2.00;;
7903;SDS011;3997;48.416;8.512;2022-11-25T03:11:13;3.08;;;2.10;;
7903;SDS011;3997;48.416;8.512;2022-11-25T03:13:39;3.30;;;2.05;;
7903;SDS011;3997;48.416;8.512;2022-11-25T03:16:06;2.67;;;1.95;;
7903;SDS011;3997;48.416;8.512;2022-11-25T03:18:34;4.68;;;2.20;;
7903;SDS011;3997;48.416;8.512;2022-11-25T03:21:00;4.10;;;2.22;;
7903;SDS011;3997;48.416;8.512;2022-11-25T03:23:27;4.97;;;2.08;;
7903;SDS011;3997;48.416;8.512;2022-11-25T03:25:53;4.47;;;2.08;;
7903;SDS011;3997;48.416;8.512;2022-11-25T03:28:20;3.05;;;2.03;;
7903;SDS011;3997;48.416;8.512;2022-11-25T03:30:46;2.95;;;2.05;;
7903;SDS011;3997;48.416;8.512;2022-11-25T03:33:13;2.60;;;2.17;;
7903;SDS011;3997;48.416;8.512;2022-11-25T03:35:40;3.78;;;2.38;;
7903;SDS011;3997;48.416;8.512;2022-11-25T03:38:07;4.75;;;2.65;;
7903;SDS011;3997;48.416;8.512;2022-11-25T03:40:33;5.55;;;1.98;;
7903;SDS011;3997;48.416;8.512;2022-11-25T03:43:00;4.47;;;2.75;;
7903;SDS011;3997;48.416;8.512;2022-11-25T03:45:26;4.78;;;2.67;;
7903;SDS011;3997;48.416;8.512;2022-11-25T03:47:53;3.10;;;1.98;;
7903;SDS011;3997;48.416;8.512;2022-11-25T03:50:19;3.22;;;1.95;;
7903;SDS011;3997;48.416;8.512;2022-11-25T03:52:47;2.40;;;2.13;;
7903;SDS011;3997;48.416;8.512;2022-11-25T03:55:13;3.10;;;2.00;;
7903;SDS011;3997;48.416;8.512;2022-11-25T03:57:40;2.00;;;1.77;;
7903;SDS011;3997;48.416;8.512;2022-11-25T04:00:07;2.55;;;1.50;;
7903;SDS011;3997;48.416;8.512;2022-11-25T04:02:34;4.47;;;2.50;;
7903;SDS011;3997;48.416;8.512;2022-11-25T04:05:01;4.95;;;2.80;;
7903;SDS011;3997;48.416;8.512;2022-11-25T04:07:29;5.15;;;2.63;;
7903;SDS011;3997;48.416;8.512;2022-11-25T04:09:57;4.88;;;2.63;;
7903;SDS011;3997;48.416;8.512;2022-11-25T04:12:23;5.85;;;2.28;;
7903;SDS011;3997;48.416;8.512;2022-11-25T04:15:07;6.15;;;2.72;;
7903;SDS011;3997;48.416;8.512;2022-11-25T04:17:34;6.22;;;4.70;;
7903;SDS011;3997;48.416;8.512;2022-11-25T04:20:00;6.03;;;4.25;;
7903;SDS011;3997;48.416;8.512;2022-11-25T04:22:27;3.42;;;2.60;;
7903;SDS011;3997;48.416;8.512;2022-11-25T04:24:53;6.43;;;3.40;;
7903;SDS011;3997;48.416;8.512;2022-11-25T04:27:21;6.45;;;4.90;;
7903;SDS011;3997;48.416;8.512;2022-11-25T04:29:47;8.57;;;5.88;;
7903;SDS011;3997;48.416;8.512;2022-11-25T04:32:14;6.07;;;4.20;;
7903;SDS011;3997;48.416;8.512;2022-11-25T04:34:40;23.40;;;18.35;;
7903;SDS011;3997;48.416;8.512;2022-11-25T04:37:07;23.33;;;16.17;;
7903;SDS011;3997;48.416;8.512;2022-11-25T04:39:33;8.52;;;7.55;;
7903;SDS011;3997;48.416;8.512;2022-11-25T04:42:00;6.80;;;4.97;;
7903;SDS011;3997;48.416;8.512;2022-11-25T04:44:41;7.93;;;4.55;;
7903;SDS011;3997;48.416;8.512;2022-11-25T04:47:08;7.63;;;4.65;;
7903;SDS011;3997;48.416;8.512;2022-11-25T04:49:34;5.80;;;3.28;;
7903;SDS011;3997;48.416;8.512;2022-11-25T04:52:01;12.88;;;7.25;;
7903;SDS011;3997;48.416;8.512;2022-11-25T04:54:27;12.48;;;8.23;;
7903;SDS011;3997;48.416;8.512;2022-11-25T04:56:53;7.05;;;3.92;;
7903;SDS011;3997;48.416;8.512;2022-11-25T04:59:20;6.25;;;3.08;;
7903;SDS011;3997;48.416;8.512;2022-11-25T05:02:06;4.22;;;3.17;;
7903;SDS011;3997;48.416;8.512;2022-11-25T05:04:37;3.65;;;2.97;;
7903;SDS011;3997;48.416;8.512;2022-11-25T05:07:03;4.13;;;3.10;;
7903;SDS011;3997;48.416;8.512;2022-11-25T05:09:30;6.65;;;4.50;;
7903;SDS011;3997;48.416;8.512;2022-11-25T05:11:56;16.75;;;12.50;;
7903;SDS011;3997;48.416;8.512;2022-11-25T05:14:23;14.50;;;10.57;;
7903;SDS011;3997;48.416;8.512;2022-11-25T05:16:49;10.35;;;8.00;;
7903;SDS011;3997;48.416;8.512;2022-11-25T05:19:17;5.47;;;2.92;;
7903;SDS011;3997;48.416;8.512;2022-11-25T05:21:43;6.47;;;4.20;;
7903;SDS011;3997;48.416;8.512;2022-11-25T05:24:10;3.72;;;2.67;;
7903;SDS011;3997;48.416;8.512;2022-11-25T05:26:36;4.95;;;3.10;;
7903;SDS011;3997;48.416;8.512;2022-11-25T05:29:03;4.30;;;3.03;;
7903;SDS011;3997;48.416;8.512;2022-11-25T05:31:29;4.63;;;3.17;;
7903;SDS011;3997;48.416;8.512;2022-11-25T05:33:58;5.35;;;3.78;;
7903;SDS011;3997;48.416;8.512;2022-11-25T05:36:26;6.68;;;5.80;;
7903;SDS011;3997;48.416;8.512;2022-11-25T05:38:52;20.70;;;17.75;;
7903;SDS011;3997;48.416;8.512;2022-11-25T05:41:19;10.20;;;8.30;;
7903;SDS011;3997;48.416;8.512;2022-11-25T05:43:45;3.97;;;3.10;;
7903;SDS011;3997;48.416;8.512;2022-11-25T05:46:12;9.82;;;6.28;;
7903;SDS011;3997;48.416;8.512;2022-11-25T05:48:38;7.70;;;4.30;;
7903;SDS011;3997;48.416;8.512;2022-11-25T05:51:05;6.65;;;4.25;;
7903;SDS011;3997;48.416;8.512;2022-11-25T05:53:34;5.05;;;4.30;;
7903;SDS011;3997;48.416;8.512;2022-11-25T05:56:02;4.03;;;3.63;;
7903;SDS011;3997;48.416;8.512;2022-11-25T05:58:29;6.00;;;3.83;;
7903;SDS011;3997;48.416;8.512;2022-11-25T06:00:56;5.13;;;3.97;;
7903;SDS011;3997;48.416;8.512;2022-11-25T06:03:22;6.15;;;3.95;;
7903;SDS011;3997;48.416;8.512;2022-11-25T06:05:49;5.55;;;3.72;;
7903;SDS011;3997;48.416;8.512;2022-11-25T06:08:15;7.10;;;3.65;;
7903;SDS011;3997;48.416;8.512;2022-11-25T06:10:43;4.20;;;3.80;;
7903;SDS011;3997;48.416;8.512;2022-11-25T06:13:10;7.55;;;4.40;;
7903;SDS011;3997;48.416;8.512;2022-11-25T06:15:38;6.50;;;3.97;;
7903;SDS011;3997;48.416;8.512;2022-11-25T06:18:05;5.95;;;3.47;;
7903;SDS011;3997;48.416;8.512;2022-11-25T06:20:31;3.38;;;3.08;;
7903;SDS011;3997;48.416;8.512;2022-11-25T06:22:58;3.88;;;3.58;;
7903;SDS011;3997;48.416;8.512;2022-11-25T06:25:24;5.47;;;2.90;;
7903;SDS011;3997;48.416;8.512;2022-11-25T06:27:52;4.57;;;2.78;;
7903;SDS011;3997;48.416;8.512;2022-11-25T06:30:19;3.17;;;2.88;;
7903;SDS011;3997;48.416;8.512;2022-11-25T06:32:45;5.70;;;3.20;;
7903;SDS011;3997;48.416;8.512;2022-11-25T06:35:12;6.97;;;5.45;;
7903;SDS011;3997;48.416;8.512;2022-11-25T06:37:38;10.00;;;5.05;;
7903;SDS011;3997;48.416;8.512;2022-11-25T06:40:05;3.40;;;3.08;;
7903;SDS011;3997;48.416;8.512;2022-11-25T06:42:32;5.80;;;2.50;;
7903;SDS011;3997;48.416;8.512;2022-11-25T06:45:00;20.67;;;14.85;;
7903;SDS011;3997;48.416;8.512;2022-11-25T06:47:26;7.63;;;4.28;;
7903;SDS011;3997;48.416;8.512;2022-11-25T06:49:52;4.38;;;3.30;;
7903;SDS011;3997;48.416;8.512;2022-11-25T06:52:19;3.28;;;2.65;;
7903;SDS011;3997;48.416;8.512;2022-11-25T06:54:45;5.40;;;2.92;;
7903;SDS011;3997;48.416;8.512;2022-11-25T06:57:14;5.93;;;4.72;;
7903;SDS011;3997;48.416;8.512;2022-11-25T06:59:41;8.30;;;5.25;;
7903;SDS011;3997;48.416;8.512;2022-11-25T07:02:09;6.20;;;5.60;;
7903;SDS011;3997;48.416;8.512;2022-11-25T07:04:36;6.93;;;4.88;;
7903;SDS011;3997;48.416;8.512;2022-11-25T07:07:03;7.03;;;4.28;;
7903;SDS011;3997;48.416;8.512;2022-11-25T07:09:29;5.32;;;4.75;;
7903;SDS011;3997;48.416;8.512;2022-11-25T07:11:55;5.65;;;4.78;;
7903;SDS011;3997;48.416;8.512;2022-11-25T07:14:22;6.90;;;3.90;;
7903;SDS011;3997;48.416;8.512;2022-11-25T07:16:48;6.43;;;5.15;;
7903;SDS011;3997;48.416;8.512;2022-11-25T07:19:16;21.65;;;13.63;;
7903;SDS011;3997;48.416;8.512;2022-11-25T07:21:44;24.15;;;14.88;;
7903;SDS011;3997;48.416;8.512;2022-11-25T07:24:11;15.68;;;11.25;;
7903;SDS011;3997;48.416;8.512;2022-11-25T07:26:39;11.95;;;8.75;;
7903;SDS011;3997;48.416;8.512;2022-11-25T07:29:06;8.57;;;6.38;;
7903;SDS011;3997;48.416;8.512;2022-11-25T07:31:33;6.95;;;4.07;;
7903;SDS011;3997;48.416;8.512;2022-11-25T07:34:01;3.05;;;2.60;;
7903;SDS011;3997;48.416;8.512;2022-11-25T07:36:29;3.33;;;2.70;;
7903;SDS011;3997;48.416;8.512;2022-11-25T07:38:56;6.95;;;2.90;;
7903;SDS011;3997;48.416;8.512;2022-11-25T07:41:23;3.17;;;2.88;;
7903;SDS011;3997;48.416;8.512;2022-11-25T07:43:50;3.70;;;2.40;;
7903;SDS011;3997;48.416;8.512;2022-11-25T07:46:18;4.35;;;3.00;;
7903;SDS011;3997;48.416;8.512;2022-11-25T07:48:44;6.18;;;4.13;;
7903;SDS011;3997;48.416;8.512;2022-11-25T07:51:15;4.70;;;3.63;;
7903;SDS011;3997;48.416;8.512;2022-11-25T07:53:42;3.95;;;3.40;;
7903;SDS011;3997;48.416;8.512;2022-11-25T07:56:09;5.28;;;3.35;;
7903;SDS011;3997;48.416;8.512;2022-11-25T07:58:35;4.47;;;3.25;;
7903;SDS011;3997;48.416;8.512;2022-11-25T08:01:02;5.00;;;3.38;;
7903;SDS011;3997;48.416;8.512;2022-11-25T08:03:30;4.55;;;4.05;;
7903;SDS011;3997;48.416;8.512;2022-11-25T08:05:58;4.18;;;3.50;;
7903;SDS011;3997;48.416;8.512;2022-11-25T08:08:25;4.60;;;3.70;;
7903;SDS011;3997;48.416;8.512;2022-11-25T08:10:53;5.05;;;4.43;;
7903;SDS011;3997;48.416;8.512;2022-11-25T08:13:19;8.32;;;4.38;;
7903;SDS011;3997;48.416;8.512;2022-11-25T08:15:45;7.43;;;3.65;;
7903;SDS011;3997;48.416;8.512;2022-11-25T08:18:12;7.65;;;3.10;;
7903;SDS011;3997;48.416;8.512;2022-11-25T08:20:38;5.03;;;3.28;;
7903;SDS011;3997;48.416;8.512;2022-11-25T08:23:05;3.88;;;2.60;;
7903;SDS011;3997;48.416;8.512;2022-11-25T08:25:31;6.22;;;2.42;;
7903;SDS011;3997;48.416;8.512;2022-11-25T08:27:59;3.85;;;3.25;;
7903;SDS011;3997;48.416;8.512;2022-11-25T08:30:26;4.55;;;3.65;;
7903;SDS011;3997;48.416;8.512;2022-11-25T08:32:52;4.63;;;3.53;;
7903;SDS011;3997;48.416;8.512;2022-11-25T08:35:19;6.05;;;2.75;;
7903;SDS011;3997;48.416;8.512;2022-11-25T08:37:45;5.70;;;2.83;;
7903;SDS011;3997;48.416;8.512;2022-11-25T08:40:12;2.70;;;2.30;;
7903;SDS011;3997;48.416;8.512;2022-11-25T08:42:38;6.32;;;2.95;;
7903;SDS011;3997;48.416;8.512;2022-11-25T08:45:07;3.63;;;2.33;;
7903;SDS011;3997;48.416;8.512;2022-11-25T08:47:34;2.83;;;2.47;;
7903;SDS011;3997;48.416;8.512;2022-11-25T08:50:00;3.65;;;2.65;;
7903;SDS011;3997;48.416;8.512;2022-11-25T08:52:27;3.85;;;2.83;;
7903;SDS011;3997;48.416;8.512;2022-11-25T08:54:53;5.15;;;2.72;;
7903;SDS011;3997;48.416;8.512;2022-11-25T08:57:20;6.40;;;2.65;;
7903;SDS011;3997;48.416;8.512;2022-11-25T08:59:46;5.82;;;2.53;;
7903;SDS011;3997;48.416;8.512;2022-11-25T09:02:14;5.07;;;2.50;;
7903;SDS011;3997;48.416;8.512;2022-11-25T09:04:41;4.90;;;2.50;;
7903;SDS011;3997;48.416;8.512;2022-11-25T09:07:08;3.60;;;2.22;;
7903;SDS011;3997;48.416;8.512;2022-11-25T09:09:34;3.70;;;1.88;;
7903;SDS011;3997;48.416;8.512;2022-11-25T09:12:01;2.95;;;1.88;;
7903;SDS011;3997;48.416;8.512;2022-11-25T09:14:27;2.55;;;1.67;;
7903;SDS011;3997;48.416;8.512;2022-11-25T09:16:54;1.65;;;1.40;;
7903;SDS011;3997;48.416;8.512;2022-11-25T09:19:22;6.90;;;1.80;;
7903;SDS011;3997;48.416;8.512;2022-11-25T09:21:48;5.63;;;2.00;;
7903;SDS011;3997;48.416;8.512;2022-11-25T09:24:15;2.55;;;1.63;;
7903;SDS011;3997;48.416;8.512;2022-11-25T09:26:42;5.10;;;1.70;;
7903;SDS011;3997;48.416;8.512;2022-11-25T09:29:09;4.20;;;1.60;;
7903;SDS011;3997;48.416;8.512;2022-11-25T09:31:37;2.75;;;1.77;;
7903;SDS011;3997;48.416;8.512;2022-11-25T09:34:03;4.65;;;1.73;;
7903;SDS011;3997;48.416;8.512;2022-11-25T09:36:31;4.95;;;1.90;;
7903;SDS011;3997;48.416;8.512;2022-11-25T09:38:57;3.95;;;1.50;;
7903;SDS011;3997;48.416;8.512;2022-11-25T09:41:30;5.03;;;1.80;;
7903;SDS011;3997;48.416;8.512;2022-11-25T09:44:33;4.45;;;1.60;;
7903;SDS011;3997;48.416;8.512;2022-11-25T09:47:21;7.85;;;1.98;;
7903;SDS011;3997;48.416;8.512;2022-11-25T09:49:56;2.42;;;1.63;;
7903;SDS011;3997;48.416;8.512;2022-11-25T09:52:27;7.28;;;1.85;;
7903;SDS011;3997;48.416;8.512;2022-11-25T09:54:56;3.83;;;1.70;;
7903;SDS011;3997;48.416;8.512;2022-11-25T09:57:26;3.60;;;2.30;;
7903;SDS011;3997;48.416;8.512;2022-11-25T09:59:59;5.35;;;2.30;;
7903;SDS011;3997;48.416;8.512;2022-11-25T10:02:29;4.43;;;2.03;;
7903;SDS011;3997;48.416;8.512;2022-11-25T10:05:00;3.53;;;1.45;;
7903;SDS011;3997;48.416;8.512;2022-11-25T10:07:33;9.63;;;2.25;;
7903;SDS011;3997;48.416;8.512;2022-11-25T10:10:04;7.13;;;2.00;;
7903;SDS011;3997;48.416;8.512;2022-11-25T10:12:33;4.32;;;1.40;;
7903;SDS011;3997;48.416;8.512;2022-11-25T10:15:00;3.67;;;1.30;;
7903;SDS011;3997;48.416;8.512;2022-11-25T10:17:31;6.40;;;1.75;;
7903;SDS011;3997;48.416;8.512;2022-11-25T10:20:00;8.18;;;2.47;;
7903;SDS011;3997;48.416;8.512;2022-11-25T10:22:29;7.30;;;3.80;;
7903;SDS011;3997;48.416;8.512;2022-11-25T10:24:59;11.48;;;2.05;;
7903;SDS011;3997;48.416;8.512;2022-11-25T10:27:35;5.80;;;2.50;;
7903;SDS011;3997;48.416;8.512;2022-11-25T10:30:06;10.07;;;4.55;;
7903;SDS011;3997;48.416;8.512;2022-11-25T10:32:38;10.25;;;3.40;;
7903;SDS011;3997;48.416;8.512;2022-11-25T10:35:07;7.47;;;2.80;;
7903;SDS011;3997;48.416;8.512;2022-11-25T10:37:38;6.78;;;2.42;;
7903;SDS011;3997;48.416;8.512;2022-11-25T10:40:08;7.88;;;2.30;;
7903;SDS011;3997;48.416;8.512;2022-11-25T10:42:39;9.23;;;2.80;;
7903;SDS011;3997;48.416;8.512;2022-11-25T10:45:07;9.93;;;3.22;;
7903;SDS011;3997;48.416;8.512;2022-11-25T10:47:45;5.07;;;2.70;;
7903;SDS011;3997;48.416;8.512;2022-11-25T10:50:16;4.03;;;1.25;;
7903;SDS011;3997;48.416;8.512;2022-11-25T10:52:48;10.73;;;3.97;;
7903;SDS011;3997;48.416;8.512;2022-11-25T10:55:21;5.85;;;2.80;;
7903;SDS011;3997;48.416;8.512;2022-11-25T10:57:50;5.13;;;2.70;;
7903;SDS011;3997;48.416;8.512;2022-11-25T11:00:27;4.32;;;2.00;;
7903;SDS011;3997;48.416;8.512;2022-11-25T11:03:12;6.18;;;1.48;;
7903;SDS011;3997;48.416;8.512;2022-11-25T11:05:43;6.65;;;2.58;;
7903;SDS011;3997;48.416;8.512;2022-11-25T11:08:16;4.13;;;1.20;;
7903;SDS011;3997;48.416;8.512;2022-11-25T11:10:45;6.07;;;1.95;;
7903;SDS011;3997;48.416;8.512;2022-11-25T11:13:20;5.47;;;2.78;;
7903;SDS011;3997;48.416;8.512;2022-11-25T11:15:46;8.27;;;3.45;;
7903;SDS011;3997;48.416;8.512;2022-11-25T11:18:14;5.70;;;2.15;;
7903;SDS011;3997;48.416;8.512;2022-11-25T11:20:46;3.97;;;2.50;;
7903;SDS011;3997;48.416;8.512;2022-11-25T11:23:13;2.15;;;1.00;;
7903;SDS011;3997;48.416;8.512;2022-11-25T11:25:41;3.80;;;1.33;;
7903;SDS011;3997;48.416;8.512;2022-11-25T11:31:02;2.85;;;1.40;;
7903;SDS011;3997;48.416;8.512;2022-11-25T11:33:35;2.08;;;1.38;;
7903;SDS011;3997;48.416;8.512;2022-11-25T11:36:06;1.60;;;0.82;;
7903;SDS011;3997;48.416;8.512;2022-11-25T11:38:36;2.15;;;1.30;;
7903;SDS011;3997;48.416;8.512;2022-11-25T11:41:06;5.38;;;1.20;;
7903;SDS011;3997;48.416;8.512;2022-11-25T11:43:45;4.07;;;2.70;;
7903;SDS011;3997;48.416;8.512;2022-11-25T11:46:19;6.78;;;2.35;;
7903;SDS011;3997;48.416;8.512;2022-11-25T11:48:51;1.98;;;1.42;;
7903;SDS011;3997;48.416;8.512;2022-11-25T11:51:21;2.72;;;1.20;;
7903;SDS011;3997;48.416;8.512;2022-11-25T11:53:51;3.03;;;1.20;;
7903;SDS011;3997;48.416;8.512;2022-11-25T11:56:26;1.55;;;0.88;;
7903;SDS011;3997;48.416;8.512;2022-11-25T11:58:57;2.38;;;1.30;;
7903;SDS011;3997;48.416;8.512;2022-11-25T12:01:34;1.48;;;1.20;;
7903;SDS011;3997;48.416;8.512;2022-11-25T12:04:02;2.30;;;1.35;;
7903;SDS011;3997;48.416;8.512;2022-11-25T12:06:33;0.52;;;0.50;;
7903;SDS011;3997;48.416;8.512;2022-11-25T12:09:02;3.28;;;1.30;;
7903;SDS011;3997;48.416;8.512;2022-11-25T12:11:31;1.35;;;0.73;;
7903;SDS011;3997;48.416;8.512;2022-11-25T12:13:59;2.90;;;0.75;;
7903;SDS011;3997;48.416;8.512;2022-11-25T12:16:29;0.57;;;0.45;;
7903;SDS011;3997;48.416;8.512;2022-11-25T12:19:00;1.23;;;0.93;;
7903;SDS011;3997;48.416;8.512;2022-11-25T12:21:36;1.75;;;1.50;;
7903;SDS011;3997;48.416;8.512;2022-11-25T12:24:05;1.92;;;1.00;;
7903;SDS011;3997;48.416;8.512;2022-11-25T12:26:37;2.08;;;0.93;;
7903;SDS011;3997;48.416;8.512;2022-11-25T12:29:06;3.22;;;0.73;;
7903;SDS011;3997;48.416;8.512;2022-11-25T12:31:34;1.17;;;0.60;;
7903;SDS011;3997;48.416;8.512;2022-11-25T12:34:04;1.38;;;0.80;;
7903;SDS011;3997;48.416;8.512;2022-11-25T12:36:33;1.83;;;0.70;;
7903;SDS011;3997;48.416;8.512;2022-11-25T12:39:01;0.60;;;0.60;;
7903;SDS011;3997;48.416;8.512;2022-11-25T12:41:31;1.30;;;0.95;;
7903;SDS011;3997;48.416;8.512;2022-11-25T12:44:03;1.60;;;1.15;;
7903;SDS011;3997;48.416;8.512;2022-11-25T12:46:33;2.13;;;1.00;;
7903;SDS011;3997;48.416;8.512;2022-11-25T12:49:00;3.10;;;1.23;;
7903;SDS011;3997;48.416;8.512;2022-11-25T12:54:23;3.40;;;1.23;;
7903;SDS011;3997;48.416;8.512;2022-11-25T12:57:01;1.52;;;1.13;;
7903;SDS011;3997;48.416;8.512;2022-11-25T12:59:43;5.60;;;1.80;;
7903;SDS011;3997;48.416;8.512;2022-11-25T13:02:22;5.90;;;4.30;;
7903;SDS011;3997;48.416;8.512;2022-11-25T13:07:42;2.65;;;2.10;;
7903;SDS011;3997;48.416;8.512;2022-11-25T13:10:22;14.75;;;8.43;;
7903;SDS011;3997;48.416;8.512;2022-11-25T13:12:56;8.05;;;4.97;;
7903;SDS011;3997;48.416;8.512;2022-11-25T13:15:25;4.85;;;2.88;;
7903;SDS011;3997;48.416;8.512;2022-11-25T13:17:53;2.65;;;1.50;;
7903;SDS011;3997;48.416;8.512;2022-11-25T13:20:32;2.78;;;1.85;;
7903;SDS011;3997;48.416;8.512;2022-11-25T13:23:00;5.93;;;2.25;;
7903;SDS011;3997;48.416;8.512;2022-11-25T13:25:28;2.63;;;1.38;;
7903;SDS011;3997;48.416;8.512;2022-11-25T13:27:55;4.25;;;1.52;;
7903;SDS011;3997;48.416;8.512;2022-11-25T13:30:33;2.00;;;1.20;;
7903;SDS011;3997;48.416;8.512;2022-11-25T13:33:58;2.78;;;1.45;;
7903;SDS011;3997;48.416;8.512;2022-11-25T13:35:50;5.45;;;1.65;;
7903;SDS011;3997;48.416;8.512;2022-11-25T13:38:36;3.40;;;1.20;;
7903;SDS011;3997;48.416;8.512;2022-11-25T13:41:20;1.92;;;1.17;;
7903;SDS011;3997;48.416;8.512;2022-11-25T13:43:50;7.03;;;1.75;;
7903;SDS011;3997;48.416;8.512;2022-11-25T13:46:25;6.43;;;1.60;;
7903;SDS011;3997;48.416;8.512;2022-11-25T13:48:52;2.80;;;1.60;;
7903;SDS011;3997;48.416;8.512;2022-11-25T13:51:20;6.03;;;1.50;;
7903;SDS011;3997;48.416;8.512;2022-11-25T13:53:49;6.35;;;1.60;;
7903;SDS011;3997;48.416;8.512;2022-11-25T13:56:23;3.67;;;1.35;;
7903;SDS011;3997;48.416;8.512;2022-11-25T14:01:35;3.90;;;1.00;;
7903;SDS011;3997;48.416;8.512;2022-11-25T14:04:02;4.32;;;1.10;;
7903;SDS011;3997;48.416;8.512;2022-11-25T14:06:35;3.88;;;1.20;;
7903;SDS011;3997;48.416;8.512;2022-11-25T14:09:03;4.75;;;1.27;;
7903;SDS011;3997;48.416;8.512;2022-11-25T14:11:34;3.33;;;1.25;;
7903;SDS011;3997;48.416;8.512;2022-11-25T14:17:04;2.80;;;1.30;;
7903;SDS011;3997;48.416;8.512;2022-11-25T14:19:42;2.58;;;1.23;;
7903;SDS011;3997;48.416;8.512;2022-11-25T14:22:15;2.85;;;1.40;;
7903;SDS011;3997;48.416;8.512;2022-11-25T14:24:43;3.58;;;1.48;;
7903;SDS011;3997;48.416;8.512;2022-11-25T14:27:14;3.30;;;1.42;;
7903;SDS011;3997;48.416;8.512;2022-11-25T14:29:42;5.60;;;1.65;;
7903;SDS011;3997;48.416;8.512;2022-11-25T14:32:12;4.93;;;1.90;;
7903;SDS011;3997;48.416;8.512;2022-11-25T14:34:40;6.13;;;1.50;;
7903;SDS011;3997;48.416;8.512;2022-11-25T14:37:09;6.03;;;1.38;;
7903;SDS011;3997;48.416;8.512;2022-11-25T14:39:36;5.07;;;1.80;;
7903;SDS011;3997;48.416;8.512;2022-11-25T14:42:05;6.47;;;1.77;;
7903;SDS011;3997;48.416;8.512;2022-11-25T14:44:35;6.57;;;1.50;;
7903;SDS011;3997;48.416;8.512;2022-11-25T14:47:04;3.20;;;1.60;;
7903;SDS011;3997;48.416;8.512;2022-11-25T14:49:43;7.30;;;1.70;;
7903;SDS011;3997;48.416;8.512;2022-11-25T14:52:14;3.95;;;1.27;;
7903;SDS011;3997;48.416;8.512;2022-11-25T14:54:41;4.28;;;2.13;;
7903;SDS011;3997;48.416;8.512;2022-11-25T14:57:08;5.70;;;2.22;;
7903;SDS011;3997;48.416;8.512;2022-11-25T14:59:36;5.45;;;2.47;;
7903;SDS011;3997;48.416;8.512;2022-11-25T15:02:03;6.78;;;1.92;;
7903;SDS011;3997;48.416;8.512;2022-11-25T15:04:30;2.55;;;1.40;;
7903;SDS011;3997;48.416;8.512;2022-11-25T15:06:57;4.60;;;1.52;;
7903;SDS011;3997;48.416;8.512;2022-11-25T15:09:25;8.85;;;2.92;;
7903;SDS011;3997;48.416;8.512;2022-11-25T15:11:52;6.88;;;2.08;;
7903;SDS011;3997;48.416;8.512;2022-11-25T15:14:22;3.63;;;1.50;;
7903;SDS011;3997;48.416;8.512;2022-11-25T15:16:51;5.63;;;1.20;;
7903;SDS011;3997;48.416;8.512;2022-11-25T15:19:19;4.93;;;1.17;;
7903;SDS011;3997;48.416;8.512;2022-11-25T15:21:45;4.28;;;1.40;;
7903;SDS011;3997;48.416;8.512;2022-11-25T15:24:21;3.38;;;1.75;;
7903;SDS011;3997;48.416;8.512;2022-11-25T15:26:49;3.03;;;1.48;;
7903;SDS011;3997;48.416;8.512;2022-11-25T15:29:16;4.45;;;1.40;;
7903;SDS011;3997;48.416;8.512;2022-11-25T15:31:43;4.35;;;1.30;;
7903;SDS011;3997;48.416;8.512;2022-11-25T15:34:12;4.63;;;1.77;;
7903;SDS011;3997;48.416;8.512;2022-11-25T15:36:39;5.28;;;1.75;;
7903;SDS011;3997;48.416;8.512;2022-11-25T15:39:13;9.60;;;2.03;;
7903;SDS011;3997;48.416;8.512;2022-11-25T15:41:40;5.25;;;1.70;;